09:05
Airports
History
Links
Donate
Help keep this website running!
PayPal
Bitcoin
This page is community maintained. The information is intended for PC simulator navigation or reference.
Always use approved charts for navigation.
AUK
Alakanuk
Alakanuk (AUK)
Alakanuk, Alaska, United States (99554)
4
Lat/Lng:62° 40' 48.16" N / 164° 39' 35.73" W
62.680044 / -164.659925
Elevation:10'ft / 3mMSL
ID / ICAO:AUK
Runways:1
Longest:18-36
Gravel 676m / 2,218ft
Nearby Weather08:56 GMT 2018-01-20
Nearby weather at PAEM, Emmonak located 9.1 nautical miles from AUK
Altimeter: 30.43
Visibility: 10.0 statute miles
Wind: 5 knots (from 010°)
Temp: -19°c / -2°f
Humidity: 77.0%

METAR: PAEM 200856Z AUTO 01005KT 10SM CLR M19/M22 A3043 RMK AO2 SLP365 T11941217 53007 FZRANO

(Powered by phpweather)
Nearby VORs <50NM
Nearby NDBs
Runway 18 / 36
Dimensions:675.9 x 16.8m 2218' x 55'ft
Surface:Gravel
Edge Lights:Medium intensity
Runway 18 [A]Runway 36 [B]
Heading:196°TH 016°TH
Lat:
Lng:
62° 40' 58.55"N
164° 39' 28.81"W
62° 40' 37.77"N
164° 39' 42.65"W
(Edited 2012-09-12) [ Sign in to Edit ]
User Notes and Comments
62° 40' 48.16" N / 164° 39' 35.73" W
Distance To
Airport ID:
Nearby Airports
4 Emmonak 9.1 NM
PAEM ( WX ) NE 36°
4 Sheldon Point 12.5 NM
SXP SSW 208°
(X) Kotlik 42.2 NM
KOT NE 55°
4 Kotlik 43.0 NM
PFKO NE 55°
(C) Mountain Village 51.1 NM
PAMO SE 142°
(C) ST MARYS 60.9 NM
PASM ( WX ) SE 134°
4 Scammon Bay 64.8 NM
PACM SSW 206°
VFR Chart
Flight Planning at SkyVector.com